createdAt,value
2022-10-23T00:01:44.995Z,15.64
2022-10-23T00:04:14.798Z,15.64
2022-10-23T00:06:43.266Z,15.63
2022-10-23T00:09:12.816Z,15.76
2022-10-23T00:11:41.494Z,15.69
2022-10-23T00:14:09.237Z,15.71
2022-10-23T00:16:36.173Z,15.73
2022-10-23T00:19:04.165Z,15.75
2022-10-23T00:21:32.693Z,15.67
2022-10-23T00:23:59.914Z,15.65
2022-10-23T00:26:26.980Z,15.73
2022-10-23T00:28:55.262Z,15.72
2022-10-23T00:31:23.568Z,15.71
2022-10-23T00:33:51.601Z,15.72
2022-10-23T00:36:20.796Z,15.70
2022-10-23T00:38:48.704Z,15.81
2022-10-23T00:41:19.389Z,15.71
2022-10-23T00:44:23.294Z,15.65
2022-10-23T00:46:50.186Z,15.72
2022-10-23T00:49:17.726Z,15.72
2022-10-23T00:51:50.687Z,15.77
2022-10-23T00:54:25.073Z,15.81
2022-10-23T00:56:56.177Z,15.81
2022-10-23T00:59:23.593Z,15.85
2022-10-23T01:01:50.452Z,15.87
2022-10-23T01:04:17.398Z,15.93
2022-10-23T01:06:50.974Z,15.97
2022-10-23T01:09:20.652Z,16.01
2022-10-23T01:11:55.847Z,15.98
2022-10-23T01:14:31.721Z,16.04
2022-10-23T01:17:11.868Z,15.98
2022-10-23T01:20:05.119Z,15.84
2022-10-23T01:22:49.962Z,15.98
2022-10-23T01:25:19.329Z,15.98
2022-10-23T01:27:50.095Z,15.87
2022-10-23T01:30:18.006Z,15.97
2022-10-23T01:32:48.461Z,15.96
2022-10-23T01:35:22.263Z,16.03
2022-10-23T01:38:00.977Z,15.93
2022-10-23T01:40:53.974Z,16.03
2022-10-23T01:43:27.359Z,16.00
2022-10-23T01:45:59.542Z,16.00
2022-10-23T01:48:32.252Z,16.02
2022-10-23T01:51:05.545Z,16.01
2022-10-23T01:53:36.305Z,16.10
2022-10-23T01:56:07.376Z,16.18
2022-10-23T01:58:36.216Z,16.16
2022-10-23T02:01:06.230Z,15.96
2022-10-23T02:03:33.611Z,15.16
2022-10-23T02:06:00.404Z,15.03
2022-10-23T02:08:28.034Z,15.05
2022-10-23T02:11:13.271Z,15.22
2022-10-23T02:13:49.545Z,15.34
2022-10-23T02:16:22.119Z,15.41
2022-10-23T02:19:02.718Z,15.48
2022-10-23T02:21:50.527Z,15.61
2022-10-23T02:24:24.573Z,15.73
2022-10-23T02:26:57.167Z,15.73
2022-10-23T02:29:33.003Z,15.54
2022-10-23T02:31:59.875Z,15.44
2022-10-23T02:34:26.928Z,15.48
2022-10-23T02:36:53.995Z,15.50
2022-10-23T02:39:25.318Z,15.54
2022-10-23T02:42:01.214Z,15.65
2022-10-23T02:44:48.100Z,15.75
2022-10-23T02:47:43.130Z,15.87
2022-10-23T02:50:33.350Z,15.96
2022-10-23T02:53:21.342Z,16.05
2022-10-23T02:56:08.833Z,15.95
2022-10-23T02:58:48.495Z,16.04
2022-10-23T03:01:20.135Z,16.09
2022-10-23T03:03:54.345Z,15.95
2022-10-23T03:06:22.902Z,15.73
2022-10-23T03:09:00.041Z,15.41
2022-10-23T03:11:26.990Z,15.10
2022-10-23T03:13:53.663Z,15.05
2022-10-23T03:16:20.530Z,14.99
2022-10-23T03:18:47.346Z,15.10
2022-10-23T03:21:14.063Z,15.02
2022-10-23T03:23:40.895Z,14.95
2022-10-23T03:26:07.914Z,14.87
2022-10-23T03:28:35.636Z,14.78
2022-10-23T03:31:03.146Z,14.77
2022-10-23T03:33:31.110Z,14.68
2022-10-23T03:35:57.939Z,14.58
2022-10-23T03:38:24.811Z,14.58
2022-10-23T03:40:51.585Z,14.45
2022-10-23T03:43:18.310Z,14.38
2022-10-23T03:45:45.092Z,14.43
2022-10-23T03:48:11.919Z,14.53
2022-10-23T03:50:38.610Z,14.46
2022-10-23T03:53:05.521Z,14.29
2022-10-23T03:55:32.417Z,14.08
2022-10-23T03:57:59.165Z,14.08
2022-10-23T04:00:26.001Z,13.93
2022-10-23T04:02:52.690Z,13.94
2022-10-23T04:05:19.401Z,13.90
2022-10-23T04:07:46.216Z,14.19
2022-10-23T04:10:13.034Z,14.41
2022-10-23T04:12:39.889Z,14.40
2022-10-23T04:15:07.397Z,14.31
2022-10-23T04:17:34.227Z,14.36
2022-10-23T04:20:00.944Z,14.30
2022-10-23T04:22:28.611Z,14.34
2022-10-23T04:24:55.851Z,14.42
2022-10-23T04:27:23.181Z,14.50
2022-10-23T04:29:50.579Z,14.47
2022-10-23T04:32:18.320Z,14.43
2022-10-23T04:34:45.029Z,14.59
2022-10-23T04:37:11.760Z,14.67
2022-10-23T04:39:38.479Z,14.86
2022-10-23T04:42:05.328Z,14.99
2022-10-23T04:44:32.058Z,14.98
2022-10-23T04:46:58.826Z,14.95
2022-10-23T04:49:25.618Z,15.05
2022-10-23T04:51:52.430Z,15.11
2022-10-23T04:54:19.108Z,15.17
2022-10-23T04:56:45.837Z,15.03
2022-10-23T04:59:12.678Z,14.81
2022-10-23T05:01:39.518Z,14.56
2022-10-23T05:04:06.321Z,14.67
2022-10-23T05:06:33.204Z,14.65
2022-10-23T05:09:00.009Z,14.67
2022-10-23T05:11:26.737Z,14.84
2022-10-23T05:13:53.587Z,14.87
2022-10-23T05:16:37.219Z,14.95
2022-10-23T05:19:07.247Z,15.07
2022-10-23T05:21:35.510Z,14.93
2022-10-23T05:24:02.402Z,15.12
2022-10-23T05:26:31.595Z,15.37
2022-10-23T05:28:58.363Z,15.49
2022-10-23T05:31:25.986Z,15.65
2022-10-23T05:33:55.644Z,15.73
2022-10-23T05:36:24.226Z,15.82
2022-10-23T05:38:51.328Z,15.85
2022-10-23T05:41:18.420Z,15.97
2022-10-23T05:43:46.342Z,16.03
2022-10-23T05:46:13.311Z,16.13
2022-10-23T05:48:40.120Z,16.13
2022-10-23T05:51:09.249Z,16.11
2022-10-23T05:53:38.767Z,16.11
2022-10-23T05:56:09.670Z,16.15
2022-10-23T05:58:36.490Z,16.12
2022-10-23T06:01:11.223Z,16.18
2022-10-23T06:03:38.989Z,16.25
2022-10-23T06:06:07.401Z,16.29
2022-10-23T06:08:37.418Z,16.26
2022-10-23T06:11:11.313Z,16.11
2022-10-23T06:13:38.487Z,16.26
2022-10-23T06:16:18.669Z,16.25
2022-10-23T06:18:46.721Z,16.30
2022-10-23T06:21:14.342Z,16.37
2022-10-23T06:23:42.229Z,16.31
2022-10-23T06:26:12.685Z,16.30
2022-10-23T06:28:39.945Z,16.22
2022-10-23T06:31:08.681Z,16.31
2022-10-23T06:33:36.005Z,16.44
2022-10-23T06:36:03.767Z,16.47
2022-10-23T06:38:36.718Z,16.43
2022-10-23T06:41:05.147Z,16.44
2022-10-23T06:43:31.870Z,16.43
2022-10-23T06:46:04.142Z,16.44
2022-10-23T06:48:32.007Z,16.43
2022-10-23T06:50:59.730Z,16.49
2022-10-23T06:53:26.653Z,16.47
2022-10-23T06:55:55.500Z,16.47
2022-10-23T06:58:22.464Z,16.47
2022-10-23T07:00:49.285Z,16.48
2022-10-23T07:03:16.117Z,16.57
2022-10-23T07:05:44.938Z,16.59
2022-10-23T07:08:11.875Z,16.50
2022-10-23T07:10:38.812Z,16.55
2022-10-23T07:13:05.575Z,16.55
2022-10-23T07:15:32.389Z,16.47
2022-10-23T07:17:59.085Z,16.51
2022-10-23T07:20:26.107Z,16.39
2022-10-23T07:22:54.804Z,16.38
2022-10-23T07:25:22.840Z,16.34
2022-10-23T07:27:50.384Z,16.33
2022-10-23T07:30:17.683Z,16.32
2022-10-23T07:32:44.896Z,16.39
2022-10-23T07:37:45.030Z,16.58
2022-10-23T07:40:12.700Z,16.69
2022-10-23T07:42:39.473Z,16.75
2022-10-23T07:45:09.013Z,16.86
2022-10-23T07:47:35.718Z,16.88
2022-10-23T07:50:02.487Z,16.93
2022-10-23T07:52:32.088Z,17.02
2022-10-23T07:55:02.002Z,17.08
2022-10-23T07:57:28.698Z,17.09
2022-10-23T07:59:55.516Z,16.98
2022-10-23T08:02:22.343Z,16.92
2022-10-23T08:04:50.271Z,16.78
2022-10-23T08:07:17.136Z,16.73
2022-10-23T08:09:43.856Z,16.62
2022-10-23T08:12:10.565Z,16.56
2022-10-23T08:14:39.254Z,16.56
2022-10-23T08:17:09.847Z,16.59
2022-10-23T08:19:37.022Z,16.60
2022-10-23T08:22:04.098Z,16.72
2022-10-23T08:24:31.246Z,16.75
2022-10-23T08:26:58.816Z,16.72
2022-10-23T08:29:25.780Z,16.64
2022-10-23T08:31:57.516Z,16.58
2022-10-23T08:34:24.526Z,16.50
2022-10-23T08:36:51.485Z,16.46
2022-10-23T08:39:18.246Z,16.38
2022-10-23T08:41:51.217Z,16.33
2022-10-23T08:44:40.508Z,16.06
2022-10-23T08:47:11.858Z,16.02
2022-10-23T08:49:52.246Z,15.90
2022-10-23T08:52:39.625Z,15.91
2022-10-23T08:55:15.385Z,15.91
2022-10-23T08:57:51.751Z,15.91
2022-10-23T09:00:19.516Z,15.91
2022-10-23T09:02:51.549Z,15.94
2022-10-23T09:05:50.800Z,15.94
2022-10-23T09:09:12.796Z,15.95
2022-10-23T09:11:50.945Z,16.01
2022-10-23T09:14:25.169Z,16.02
2022-10-23T09:17:07.171Z,16.05
2022-10-23T09:19:33.914Z,16.03
2022-10-23T09:22:01.249Z,15.96
2022-10-23T09:24:31.977Z,15.91
2022-10-23T09:27:01.129Z,15.96
2022-10-23T09:29:36.067Z,15.93
2022-10-23T09:32:05.833Z,15.81
2022-10-23T09:34:34.991Z,15.72
2022-10-23T09:37:21.502Z,15.55
2022-10-23T09:39:48.432Z,15.51
2022-10-23T09:42:25.060Z,15.49
2022-10-23T09:44:54.176Z,15.57
2022-10-23T09:47:24.456Z,15.59
2022-10-23T09:49:57.304Z,15.57
2022-10-23T09:52:28.414Z,15.69
2022-10-23T09:54:58.636Z,15.77
2022-10-23T09:57:42.853Z,15.88
2022-10-23T10:00:16.441Z,16.31
2022-10-23T10:02:54.914Z,16.65
2022-10-23T10:05:24.957Z,16.76
2022-10-23T10:08:00.242Z,16.89
2022-10-23T10:10:34.994Z,17.03
2022-10-23T10:13:19.138Z,17.21
2022-10-23T10:15:55.466Z,17.36
2022-10-23T10:18:37.333Z,17.56
2022-10-23T10:21:14.051Z,17.75
2022-10-23T10:24:00.565Z,17.83
2022-10-23T10:26:45.544Z,17.92
2022-10-23T10:29:16.670Z,18.20
2022-10-23T10:32:02.217Z,18.24
2022-10-23T10:34:46.574Z,18.06
2022-10-23T10:37:29.742Z,18.09
2022-10-23T10:40:02.401Z,18.13
2022-10-23T10:42:50.170Z,18.11
2022-10-23T10:45:30.297Z,18.09
2022-10-23T10:48:15.760Z,17.95
2022-10-23T10:51:05.914Z,17.86
2022-10-23T10:53:47.826Z,18.04
2022-10-23T10:56:18.621Z,18.19
2022-10-23T10:58:59.582Z,18.58
2022-10-23T11:01:56.747Z,18.87
2022-10-23T11:04:41.163Z,19.05
2022-10-23T11:07:13.311Z,19.76
2022-10-23T11:09:41.746Z,20.13
2022-10-23T11:12:18.058Z,19.75
2022-10-23T11:14:45.340Z,20.16
2022-10-23T11:17:25.529Z,19.93
2022-10-23T11:20:04.314Z,19.97
2022-10-23T11:22:46.901Z,20.03
2022-10-23T11:25:35.169Z,20.43
2022-10-23T11:28:19.445Z,20.54
2022-10-23T11:31:12.344Z,21.06
2022-10-23T11:33:47.790Z,21.55
2022-10-23T11:36:41.379Z,22.02
2022-10-23T11:39:21.873Z,21.83
2022-10-23T11:41:56.185Z,22.52
2022-10-23T11:44:36.768Z,23.13
2022-10-23T11:47:37.961Z,22.96
2022-10-23T11:50:09.242Z,22.28
2022-10-23T11:52:45.700Z,22.78
2022-10-23T11:55:27.866Z,22.94
2022-10-23T11:58:24.274Z,22.12
2022-10-23T12:01:25.681Z,21.38
2022-10-23T12:04:00.938Z,21.83
2022-10-23T12:06:31.493Z,23.42
2022-10-23T12:09:03.697Z,24.40
2022-10-23T12:11:47.449Z,24.18
2022-10-23T12:14:36.445Z,23.31
2022-10-23T12:17:18.946Z,22.81
2022-10-23T12:19:51.688Z,23.41
2022-10-23T12:22:20.999Z,24.22
2022-10-23T12:24:53.790Z,25.02
2022-10-23T12:27:39.965Z,25.74
2022-10-23T12:30:14.808Z,25.34
2022-10-23T12:32:47.543Z,24.84
2022-10-23T12:35:47.801Z,25.32
2022-10-23T12:38:22.440Z,26.62
2022-10-23T12:40:55.585Z,26.40
2022-10-23T12:43:25.337Z,25.86
2022-10-23T12:45:53.027Z,24.67
2022-10-23T12:48:22.613Z,23.64
2022-10-23T12:50:55.175Z,22.75
2022-10-23T12:53:23.811Z,23.11
2022-10-23T12:58:32.943Z,23.64
2022-10-23T13:01:03.128Z,22.91
2022-10-23T13:03:32.069Z,22.72
2022-10-23T13:06:00.170Z,22.24
2022-10-23T13:08:33.914Z,21.49
2022-10-23T13:11:01.065Z,20.48
2022-10-23T13:13:28.249Z,19.41
2022-10-23T13:15:54.995Z,18.75
2022-10-23T13:18:21.871Z,18.34
2022-10-23T13:20:51.719Z,18.17
2022-10-23T13:23:18.720Z,17.85
2022-10-23T13:26:03.373Z,18.00
2022-10-23T13:28:44.690Z,18.07
2022-10-23T13:31:12.509Z,18.21
2022-10-23T13:33:41.560Z,18.26
2022-10-23T13:36:14.149Z,18.35
2022-10-23T13:38:46.096Z,18.51
2022-10-23T13:41:18.318Z,18.62
2022-10-23T13:43:46.628Z,18.81
2022-10-23T13:46:18.354Z,18.80
2022-10-23T13:48:45.469Z,18.81
2022-10-23T13:51:14.717Z,18.91
2022-10-23T13:53:41.833Z,18.92
2022-10-23T13:56:12.000Z,18.91
2022-10-23T13:58:39.276Z,18.96
2022-10-23T14:01:07.333Z,19.12
2022-10-23T14:03:34.141Z,19.00
2022-10-23T14:06:01.470Z,18.98
2022-10-23T14:08:28.308Z,18.97
2022-10-23T14:10:55.001Z,19.00
2022-10-23T14:13:21.789Z,19.04
2022-10-23T14:15:54.613Z,19.09
2022-10-23T14:18:21.989Z,19.21
2022-10-23T14:20:49.221Z,19.30
2022-10-23T14:23:16.063Z,19.20
2022-10-23T14:25:42.798Z,19.14
2022-10-23T14:28:10.021Z,19.11
2022-10-23T14:30:39.508Z,18.79
2022-10-23T14:33:06.285Z,18.46
2022-10-23T14:35:33.016Z,18.13
2022-10-23T14:37:59.908Z,18.18
2022-10-23T14:40:26.620Z,18.32
2022-10-23T14:42:53.322Z,18.47
2022-10-23T14:45:20.210Z,18.63
2022-10-23T14:47:47.056Z,18.73
2022-10-23T14:50:14.220Z,18.77
2022-10-23T14:52:41.055Z,18.82
2022-10-23T14:55:08.264Z,18.85
2022-10-23T14:57:35.024Z,18.95
2022-10-23T15:00:01.936Z,18.90
2022-10-23T15:02:28.601Z,18.48
2022-10-23T15:04:55.573Z,18.24
2022-10-23T15:07:22.438Z,18.22
2022-10-23T15:09:50.783Z,18.26
2022-10-23T15:12:18.198Z,18.54
2022-10-23T15:14:45.010Z,18.78
2022-10-23T15:17:15.432Z,18.76
2022-10-23T15:19:42.787Z,18.86
2022-10-23T15:22:09.855Z,18.98
2022-10-23T15:24:36.760Z,19.04
2022-10-23T15:27:03.598Z,19.03
2022-10-23T15:29:30.384Z,18.88
2022-10-23T15:32:01.572Z,18.85
2022-10-23T15:34:29.396Z,18.87
2022-10-23T15:36:57.727Z,18.85
2022-10-23T15:39:27.737Z,18.63
2022-10-23T15:41:55.520Z,18.33
2022-10-23T15:44:25.177Z,18.52
2022-10-23T15:46:52.257Z,18.59
2022-10-23T15:49:19.758Z,18.59
2022-10-23T15:51:47.023Z,18.63
2022-10-23T15:54:18.467Z,18.66
2022-10-23T15:56:47.382Z,18.67
2022-10-23T15:59:14.884Z,18.69
2022-10-23T16:01:41.843Z,18.71
2022-10-23T16:04:08.840Z,18.73
2022-10-23T16:06:35.664Z,18.70
2022-10-23T16:09:02.843Z,18.73
2022-10-23T16:11:33.905Z,18.79
2022-10-23T16:14:00.845Z,18.76
2022-10-23T16:16:28.347Z,18.82
2022-10-23T16:18:55.160Z,18.73
2022-10-23T16:21:28.112Z,18.68
2022-10-23T16:23:57.406Z,18.73
2022-10-23T16:26:24.157Z,18.65
2022-10-23T16:28:55.555Z,18.47
2022-10-23T16:31:24.043Z,18.40
2022-10-23T16:33:52.532Z,18.37
2022-10-23T16:36:20.743Z,18.23
2022-10-23T16:38:47.567Z,18.19
2022-10-23T16:41:14.372Z,18.18
2022-10-23T16:43:41.150Z,17.96
2022-10-23T16:46:13.026Z,17.88
2022-10-23T16:48:40.610Z,17.91
2022-10-23T16:51:09.523Z,17.80
2022-10-23T16:53:38.377Z,17.73
2022-10-23T16:56:07.361Z,17.85
2022-10-23T16:58:34.449Z,17.82
2022-10-23T17:01:02.635Z,17.82
2022-10-23T17:03:30.298Z,17.60
2022-10-23T17:06:01.958Z,17.51
2022-10-23T17:08:29.394Z,17.47
2022-10-23T17:11:18.035Z,17.37
2022-10-23T17:13:48.359Z,17.37
2022-10-23T17:16:16.966Z,17.23
2022-10-23T17:18:44.847Z,17.24
2022-10-23T17:21:13.497Z,17.22
2022-10-23T17:23:41.028Z,17.18
2022-10-23T17:26:12.467Z,16.99
2022-10-23T17:28:42.492Z,16.93
2022-10-23T17:31:41.354Z,16.53
2022-10-23T17:34:12.642Z,16.69
2022-10-23T17:36:45.943Z,16.69
2022-10-23T17:39:15.731Z,16.77
2022-10-23T17:41:42.987Z,16.74
2022-10-23T17:44:10.844Z,16.77
2022-10-23T17:46:37.757Z,16.86
2022-10-23T17:49:05.274Z,16.87
2022-10-23T17:51:34.403Z,16.88
2022-10-23T17:54:06.478Z,16.89
2022-10-23T17:56:34.636Z,16.89
2022-10-23T17:59:05.230Z,16.90
2022-10-23T18:01:32.581Z,16.91
2022-10-23T18:04:01.558Z,16.93
2022-10-23T18:06:35.366Z,16.95
2022-10-23T18:09:04.206Z,17.03
2022-10-23T18:11:37.343Z,17.07
2022-10-23T18:14:06.350Z,17.09
2022-10-23T18:16:34.727Z,17.09
2022-10-23T18:19:02.239Z,17.17
2022-10-23T18:21:29.070Z,17.16
2022-10-23T18:23:58.013Z,17.18
2022-10-23T18:26:28.040Z,17.21
2022-10-23T18:28:57.242Z,17.01
2022-10-23T18:31:25.932Z,17.20
2022-10-23T18:34:12.111Z,17.15
2022-10-23T18:36:40.758Z,17.13
2022-10-23T18:39:09.909Z,17.19
2022-10-23T18:41:40.101Z,17.15
2022-10-23T18:44:07.768Z,17.11
2022-10-23T18:46:35.489Z,17.06
2022-10-23T18:49:02.500Z,17.03
2022-10-23T18:51:32.803Z,17.07
2022-10-23T18:54:05.867Z,17.05
2022-10-23T18:56:34.225Z,17.01
2022-10-23T18:59:03.211Z,17.03
2022-10-23T19:01:31.012Z,17.02
2022-10-23T19:03:59.469Z,17.08
2022-10-23T19:06:26.202Z,17.05
2022-10-23T19:08:53.161Z,17.06
2022-10-23T19:11:21.852Z,17.09
2022-10-23T19:13:48.668Z,17.09
2022-10-23T19:16:19.855Z,17.09
2022-10-23T19:18:51.451Z,17.10
2022-10-23T19:21:22.273Z,17.02
2022-10-23T19:23:49.736Z,17.08
2022-10-23T19:26:16.905Z,17.09
2022-10-23T19:28:48.477Z,17.04
2022-10-23T19:31:15.465Z,17.00
2022-10-23T19:33:42.397Z,17.11
2022-10-23T19:36:13.840Z,17.11
2022-10-23T19:38:42.263Z,17.12
2022-10-23T19:41:09.667Z,16.99
2022-10-23T19:43:37.857Z,16.77
2022-10-23T19:46:09.255Z,16.51
2022-10-23T19:48:42.670Z,16.29
2022-10-23T19:51:09.616Z,16.14
2022-10-23T19:53:36.813Z,16.09
2022-10-23T19:56:05.710Z,16.05
2022-10-23T19:58:32.630Z,16.03
2022-10-23T20:00:59.700Z,16.04
2022-10-23T20:03:26.603Z,16.01
2022-10-23T20:05:53.323Z,16.04
2022-10-23T20:08:20.029Z,16.06
2022-10-23T20:10:48.192Z,16.08
2022-10-23T20:13:20.275Z,16.09
2022-10-23T20:15:47.502Z,16.09
2022-10-23T20:18:14.378Z,16.10
2022-10-23T20:20:42.370Z,16.13
2022-10-23T20:23:09.305Z,16.13
2022-10-23T20:25:36.116Z,16.14
2022-10-23T20:28:03.883Z,16.15
2022-10-23T20:30:30.738Z,16.11
2022-10-23T20:32:57.602Z,16.10
2022-10-23T20:35:24.374Z,16.13
2022-10-23T20:37:51.047Z,16.13
2022-10-23T20:40:17.799Z,16.17
2022-10-23T20:42:44.509Z,16.18
2022-10-23T20:45:11.241Z,16.22
2022-10-23T20:47:39.104Z,16.23
2022-10-23T20:50:06.283Z,16.23
2022-10-23T20:55:05.001Z,16.26
2022-10-23T20:57:31.738Z,16.28
2022-10-23T20:59:59.408Z,16.30
2022-10-23T21:02:26.484Z,16.34
2022-10-23T21:04:53.316Z,16.38
2022-10-23T21:07:20.987Z,16.21
2022-10-23T21:09:47.828Z,16.16
2022-10-23T21:12:14.636Z,16.06
2022-10-23T21:14:41.404Z,16.04
2022-10-23T21:17:09.158Z,16.08
2022-10-23T21:19:36.687Z,15.99
2022-10-23T21:22:03.666Z,16.08
2022-10-23T21:24:30.692Z,16.02
2022-10-23T21:26:57.408Z,15.97
2022-10-23T21:29:24.112Z,15.94
2022-10-23T21:31:56.788Z,15.91
2022-10-23T21:34:25.090Z,15.84
2022-10-23T21:37:12.845Z,15.84
2022-10-23T21:39:39.057Z,15.80
2022-10-23T21:42:06.003Z,15.76
2022-10-23T21:44:32.874Z,15.72
2022-10-23T21:47:00.849Z,15.68
2022-10-23T21:49:27.570Z,15.62
2022-10-23T21:51:55.234Z,15.61
2022-10-23T21:54:22.592Z,15.61
2022-10-23T21:56:51.219Z,15.64
2022-10-23T21:59:20.907Z,15.61
2022-10-23T22:01:49.361Z,15.68
2022-10-23T22:04:18.658Z,15.69
2022-10-23T22:06:47.176Z,15.70
2022-10-23T22:09:17.672Z,15.68
2022-10-23T22:11:44.451Z,15.69
2022-10-23T22:14:11.274Z,15.70
2022-10-23T22:16:38.232Z,15.73
2022-10-23T22:19:05.239Z,15.78
2022-10-23T22:21:31.999Z,15.78
2022-10-23T22:24:00.922Z,15.86
2022-10-23T22:26:29.597Z,15.94
2022-10-23T22:28:59.193Z,15.98
2022-10-23T22:31:29.213Z,15.98
2022-10-23T22:33:56.551Z,15.78
2022-10-23T22:36:23.446Z,15.95
2022-10-23T22:38:50.426Z,15.95
2022-10-23T22:41:17.689Z,15.96
2022-10-23T22:43:44.736Z,15.95
2022-10-23T22:46:19.061Z,15.89
2022-10-23T22:48:46.132Z,15.85
2022-10-23T22:51:16.021Z,15.92
2022-10-23T22:53:44.047Z,15.89
2022-10-23T22:56:14.264Z,16.00
2022-10-23T22:58:41.189Z,15.98
2022-10-23T23:01:13.857Z,15.80
2022-10-23T23:03:40.843Z,15.63
2022-10-23T23:06:09.186Z,15.60
2022-10-23T23:08:37.928Z,15.51
2022-10-23T23:11:06.019Z,15.49
2022-10-23T23:13:32.862Z,15.49
2022-10-23T23:15:59.978Z,15.45
2022-10-23T23:18:27.425Z,15.54
2022-10-23T23:20:54.259Z,15.63
2022-10-23T23:23:21.365Z,15.69
2022-10-23T23:25:49.997Z,15.70
2022-10-23T23:28:20.574Z,15.65
2022-10-23T23:30:47.858Z,15.55
2022-10-23T23:33:16.667Z,15.75
2022-10-23T23:35:46.036Z,15.84
2022-10-23T23:38:13.745Z,15.90
2022-10-23T23:40:40.557Z,15.90
2022-10-23T23:43:07.369Z,15.95
2022-10-23T23:45:34.261Z,15.99
2022-10-23T23:48:00.999Z,16.00
2022-10-23T23:50:28.165Z,15.94
2022-10-23T23:52:55.048Z,16.05
2022-10-23T23:55:22.006Z,16.02
2022-10-23T23:57:48.702Z,15.98
